Terminal Aerodrome Forecast
Issued by NWS

Home | Current Version | Previous Version | Text Only | Print | Product List | Glossary On
Versions: 1 2 3 4 5 6 7 8 9 10 11 12 13 14 15 16 17 18 19
000
FTUS43 KMQT 260201 AAA
TAFCMX
TAF AMD
KCMX 260201Z 2602/2624 26020G32KT 1 1/2SM -SHSN BLSN SCT018 OVC027
      TEMPO 2602/2604 4SM -SHSN BLSN
     FM260400 27016G26KT P6SM BKN035
     FM260700 27012KT P6SM BKN035
     FM261000 27010KT P6SM SCT035
     FM261400 25007KT P6SM FEW150=

USA.gov is the U.S. government's official web portal to all federal, state and local government web resources and services.